createdAt,value
2018-06-07T00:01:00.158Z,13.43
2018-06-07T00:03:27.503Z,13.03
2018-06-07T00:05:54.831Z,13.07
2018-06-07T00:08:22.299Z,14.50
2018-06-07T00:10:49.621Z,15.17
2018-06-07T00:13:17.022Z,15.20
2018-06-07T00:15:44.382Z,15.90
2018-06-07T00:18:11.715Z,13.83
2018-06-07T00:20:39.279Z,14.43
2018-06-07T00:23:06.607Z,13.50
2018-06-07T00:25:34.009Z,14.60
2018-06-07T00:28:01.315Z,14.97
2018-06-07T00:30:28.643Z,13.90
2018-06-07T00:33:02.602Z,15.90
2018-06-07T00:35:35.220Z,14.57
2018-06-07T00:38:02.545Z,14.80
2018-06-07T00:40:29.882Z,15.10
2018-06-07T00:42:57.281Z,14.67
2018-06-07T00:45:24.627Z,14.10
2018-06-07T00:47:52.031Z,14.83
2018-06-07T00:50:19.464Z,14.27
2018-06-07T00:52:46.791Z,14.00
2018-06-07T00:55:14.117Z,15.20
2018-06-07T00:57:41.573Z,15.30
2018-06-07T01:00:08.910Z,14.00
2018-06-07T01:02:36.240Z,14.90
2018-06-07T01:05:03.542Z,13.90
2018-06-07T01:07:30.873Z,15.53
2018-06-07T01:09:58.191Z,15.00
2018-06-07T01:12:25.529Z,15.00
2018-06-07T01:14:52.865Z,13.60
2018-06-07T01:17:20.315Z,14.90
2018-06-07T01:19:47.659Z,14.43
2018-06-07T01:22:14.969Z,15.30
2018-06-07T01:24:42.337Z,12.90
2018-06-07T01:27:09.724Z,14.23
2018-06-07T01:29:42.707Z,13.70
2018-06-07T01:32:39.119Z,13.27
2018-06-07T01:35:06.467Z,13.97
2018-06-07T01:37:33.796Z,13.10
2018-06-07T01:40:01.384Z,14.27
2018-06-07T01:42:28.759Z,12.83
2018-06-07T01:44:56.123Z,14.40
2018-06-07T01:47:23.435Z,12.30
2018-06-07T01:49:50.787Z,11.07
2018-06-07T01:52:18.168Z,10.00
2018-06-07T01:54:45.562Z,10.30
2018-06-07T01:57:12.817Z,12.80
2018-06-07T01:59:40.136Z,13.10
2018-06-07T02:02:07.484Z,14.73
2018-06-07T02:04:34.787Z,12.77
2018-06-07T02:07:02.121Z,13.73
2018-06-07T02:09:29.440Z,13.20
2018-06-07T02:11:56.769Z,12.03
2018-06-07T02:14:24.106Z,12.47
2018-06-07T02:16:51.484Z,12.70
2018-06-07T02:19:18.820Z,13.30
2018-06-07T02:21:46.139Z,14.23
2018-06-07T02:24:13.464Z,14.83
2018-06-07T02:26:40.915Z,10.87
2018-06-07T02:29:08.290Z,10.23
2018-06-07T02:31:35.596Z,11.90
2018-06-07T02:34:02.918Z,12.80
2018-06-07T02:36:30.243Z,16.20
2018-06-07T02:38:57.576Z,15.10
2018-06-07T02:41:24.897Z,14.00
2018-06-07T02:43:52.323Z,10.27
2018-06-07T02:46:19.639Z,8.93
2018-06-07T02:48:46.956Z,6.90
2018-06-07T02:51:14.244Z,8.30
2018-06-07T02:53:41.656Z,11.37
2018-06-07T02:56:09.183Z,9.13
2018-06-07T02:58:36.511Z,12.13
2018-06-07T03:01:03.831Z,14.70
2018-06-07T03:03:31.159Z,17.73
2018-06-07T03:05:58.592Z,15.10
2018-06-07T03:08:26.016Z,19.67
2018-06-07T03:10:53.396Z,20.90
2018-06-07T03:13:20.805Z,20.20
2018-06-07T03:15:48.204Z,18.80
2018-06-07T03:18:15.507Z,20.27
2018-06-07T03:20:42.926Z,18.60
2018-06-07T03:23:10.365Z,17.50
2018-06-07T03:25:37.775Z,19.33
2018-06-07T03:28:05.104Z,19.37
2018-06-07T03:30:32.407Z,19.47
2018-06-07T03:32:59.756Z,18.97
2018-06-07T03:35:27.127Z,18.57
2018-06-07T03:37:54.487Z,17.90
2018-06-07T03:40:21.801Z,20.20
2018-06-07T03:42:49.215Z,19.97
2018-06-07T03:45:16.550Z,19.57
2018-06-07T03:47:43.880Z,19.63
2018-06-07T03:50:11.209Z,21.00
2018-06-07T03:52:38.564Z,22.13
2018-06-07T03:55:05.863Z,19.50
2018-06-07T03:57:33.196Z,19.57
2018-06-07T04:00:00.688Z,19.30
2018-06-07T04:02:28.077Z,20.30
2018-06-07T04:04:55.375Z,19.90
2018-06-07T04:07:22.811Z,18.23
2018-06-07T04:09:50.188Z,19.23
2018-06-07T04:12:17.528Z,20.47
2018-06-07T04:14:45.013Z,19.33
2018-06-07T04:17:12.355Z,18.87
2018-06-07T04:19:39.722Z,18.30
2018-06-07T04:22:07.047Z,18.53
2018-06-07T04:24:34.386Z,18.53
2018-06-07T04:27:01.835Z,19.73
2018-06-07T04:29:29.149Z,19.20
2018-06-07T04:31:56.466Z,17.70
2018-06-07T04:34:23.820Z,19.30
2018-06-07T04:36:51.211Z,18.80
2018-06-07T04:39:18.534Z,18.30
2018-06-07T04:41:45.893Z,18.67
2018-06-07T04:44:13.262Z,17.53
2018-06-07T04:46:40.724Z,17.47
2018-06-07T04:49:08.061Z,18.30
2018-06-07T04:51:35.408Z,18.93
2018-06-07T04:54:02.727Z,19.10
2018-06-07T04:56:30.125Z,18.00
2018-06-07T04:58:57.661Z,19.70
2018-06-07T05:01:25.024Z,18.37
2018-06-07T05:03:52.565Z,20.93
2018-06-07T05:06:19.941Z,18.93
2018-06-07T05:08:47.307Z,18.80
2018-06-07T05:11:14.621Z,18.10
2018-06-07T05:13:41.959Z,17.13
2018-06-07T05:16:09.344Z,18.50
2018-06-07T05:18:36.716Z,17.50
2018-06-07T05:21:10.815Z,18.83
2018-06-07T05:23:38.200Z,19.13
2018-06-07T05:26:05.627Z,18.07
2018-06-07T05:28:33.003Z,16.60
2018-06-07T05:31:01.388Z,17.00
2018-06-07T05:33:28.718Z,18.67
2018-06-07T05:35:56.051Z,16.90
2018-06-07T05:38:23.423Z,18.30
2018-06-07T05:40:50.751Z,17.20
2018-06-07T05:43:18.197Z,18.30
2018-06-07T05:45:45.532Z,17.07
2018-06-07T05:48:13.545Z,17.00
2018-06-07T05:50:41.043Z,16.27
2018-06-07T05:53:08.678Z,17.13
2018-06-07T05:55:36.015Z,15.47
2018-06-07T05:58:03.472Z,15.00
2018-06-07T06:00:30.801Z,15.30
2018-06-07T06:02:58.227Z,14.30
2018-06-07T06:05:25.623Z,14.07
2018-06-07T06:07:52.910Z,14.80
2018-06-07T06:10:20.363Z,13.63
2018-06-07T06:12:47.727Z,15.17
2018-06-07T06:15:15.071Z,14.37
2018-06-07T06:17:42.471Z,13.30
2018-06-07T06:20:09.874Z,14.33
2018-06-07T06:22:37.199Z,13.70
2018-06-07T06:25:04.515Z,12.97
2018-06-07T06:27:31.889Z,13.57
2018-06-07T06:29:59.207Z,12.50
2018-06-07T06:32:26.568Z,12.50
2018-06-07T06:34:53.864Z,12.27
2018-06-07T06:37:24.552Z,12.17
2018-06-07T06:39:51.855Z,11.63
2018-06-07T06:42:19.201Z,13.03
2018-06-07T06:44:46.495Z,13.00
2018-06-07T06:47:13.795Z,11.57
2018-06-07T06:49:41.128Z,11.07
2018-06-07T06:52:08.462Z,11.13
2018-06-07T06:54:35.820Z,11.00
2018-06-07T06:57:03.133Z,11.23
2018-06-07T06:59:30.475Z,11.33
2018-06-07T07:01:57.807Z,14.83
2018-06-07T07:04:25.159Z,11.40
2018-06-07T07:06:52.595Z,11.23
2018-06-07T07:09:20.073Z,12.20
2018-06-07T07:11:47.363Z,12.30
2018-06-07T07:14:14.664Z,11.20
2018-06-07T07:16:41.999Z,12.07
2018-06-07T07:19:09.387Z,12.50
2018-06-07T07:21:36.859Z,11.77
2018-06-07T07:24:04.177Z,12.63
2018-06-07T07:26:31.537Z,13.90
2018-06-07T07:28:58.956Z,14.33
2018-06-07T07:31:26.294Z,15.10
2018-06-07T07:33:53.608Z,14.30
2018-06-07T07:36:21.021Z,14.53
2018-06-07T07:38:48.382Z,15.90
2018-06-07T07:41:15.828Z,14.77
2018-06-07T07:43:43.311Z,15.33
2018-06-07T07:46:10.660Z,15.00
2018-06-07T07:48:37.980Z,13.60
2018-06-07T07:51:05.304Z,13.90
2018-06-07T07:53:32.700Z,14.30
2018-06-07T07:56:00.216Z,15.23
2018-06-07T07:58:27.568Z,16.63
2018-06-07T08:00:54.889Z,17.07
2018-06-07T08:03:22.247Z,14.73
2018-06-07T08:05:49.715Z,14.73
2018-06-07T08:08:17.079Z,15.37
2018-06-07T08:10:44.403Z,17.10
2018-06-07T08:13:11.719Z,16.27
2018-06-07T08:15:39.079Z,17.33
2018-06-07T08:18:06.473Z,17.90
2018-06-07T08:20:34.004Z,16.07
2018-06-07T08:23:01.379Z,15.80
2018-06-07T08:25:28.707Z,17.37
2018-06-07T08:27:56.083Z,17.63
2018-06-07T08:30:23.408Z,16.90
2018-06-07T08:32:50.747Z,17.90
2018-06-07T08:35:18.075Z,19.33
2018-06-07T08:37:45.399Z,15.90
2018-06-07T08:40:12.777Z,16.63
2018-06-07T08:42:40.113Z,19.80
2018-06-07T08:45:07.450Z,17.10
2018-06-07T08:47:34.800Z,18.37
2018-06-07T08:50:02.316Z,18.43
2018-06-07T08:52:29.784Z,16.87
2018-06-07T08:54:58.019Z,19.47
2018-06-07T08:57:25.475Z,18.83
2018-06-07T08:59:52.793Z,21.17
2018-06-07T09:02:20.279Z,19.50
2018-06-07T09:04:47.643Z,18.57
2018-06-07T09:07:15.071Z,17.43
2018-06-07T09:09:42.416Z,17.40
2018-06-07T09:12:09.813Z,18.53
2018-06-07T09:14:37.243Z,20.33
2018-06-07T09:17:04.837Z,19.47
2018-06-07T09:19:32.151Z,17.87
2018-06-07T09:21:59.628Z,19.20
2018-06-07T09:24:26.991Z,20.57
2018-06-07T09:26:54.337Z,19.30
2018-06-07T09:29:28.447Z,18.40
2018-06-07T09:31:55.907Z,18.83
2018-06-07T09:34:23.283Z,18.97
2018-06-07T09:36:50.579Z,19.17
2018-06-07T09:39:18.166Z,19.20
2018-06-07T09:41:45.744Z,21.60
2018-06-07T09:44:13.066Z,19.33
2018-06-07T09:46:40.453Z,20.67
2018-06-07T09:49:07.770Z,21.40
2018-06-07T09:51:35.267Z,16.57
2018-06-07T09:54:02.621Z,19.87
2018-06-07T09:56:30.183Z,19.17
2018-06-07T09:58:57.505Z,18.37
2018-06-07T10:01:24.895Z,20.13
2018-06-07T10:03:52.246Z,21.30
2018-06-07T10:06:19.575Z,21.93
2018-06-07T10:08:46.939Z,20.63
2018-06-07T10:11:14.347Z,19.83
2018-06-07T10:13:41.710Z,21.67
2018-06-07T10:16:09.095Z,21.23
2018-06-07T10:18:36.459Z,22.00
2018-06-07T10:21:03.842Z,20.03
2018-06-07T10:23:31.182Z,19.10
2018-06-07T10:25:58.525Z,20.50
2018-06-07T10:28:25.987Z,18.60
2018-06-07T10:30:53.336Z,17.90
2018-06-07T10:33:20.851Z,20.30
2018-06-07T10:35:48.345Z,20.20
2018-06-07T10:38:15.692Z,20.53
2018-06-07T10:40:43.121Z,21.20
2018-06-07T10:43:10.399Z,19.30
2018-06-07T10:45:37.767Z,20.57
2018-06-07T10:48:05.130Z,19.97
2018-06-07T10:50:32.493Z,19.10
2018-06-07T10:52:59.914Z,20.30
2018-06-07T10:55:27.482Z,20.00
2018-06-07T10:57:54.843Z,23.13
2018-06-07T11:00:22.266Z,19.17
2018-06-07T11:02:49.647Z,19.30
2018-06-07T11:05:17.097Z,20.77
2018-06-07T11:07:44.478Z,21.57
2018-06-07T11:10:11.814Z,21.20
2018-06-07T11:12:39.168Z,20.40
2018-06-07T11:15:06.531Z,19.77
2018-06-07T11:17:33.980Z,24.57
2018-06-07T11:20:01.344Z,22.40
2018-06-07T11:22:28.722Z,24.83
2018-06-07T11:24:56.185Z,25.80
2018-06-07T11:27:23.590Z,27.93
2018-06-07T11:29:50.918Z,26.40
2018-06-07T11:32:18.304Z,22.90
2018-06-07T11:34:45.885Z,25.80
2018-06-07T11:37:13.336Z,25.17
2018-06-07T11:39:40.763Z,25.40
2018-06-07T11:42:08.214Z,25.90
2018-06-07T11:44:35.576Z,23.73
2018-06-07T11:47:02.931Z,23.57
2018-06-07T11:49:30.340Z,23.70
2018-06-07T11:51:57.733Z,24.87
2018-06-07T11:54:25.102Z,26.77
2018-06-07T11:56:52.475Z,24.37
2018-06-07T11:59:19.916Z,24.27
2018-06-07T12:01:47.454Z,26.97
2018-06-07T12:04:14.712Z,24.80
2018-06-07T12:06:42.092Z,26.10
2018-06-07T12:09:09.543Z,24.93
2018-06-07T12:11:36.917Z,23.90
2018-06-07T12:14:04.459Z,23.17
2018-06-07T12:16:31.846Z,26.77
2018-06-07T12:18:59.193Z,22.13
2018-06-07T12:21:26.537Z,23.00
2018-06-07T12:23:54.071Z,25.90
2018-06-07T12:26:21.427Z,27.10
2018-06-07T12:28:48.827Z,23.10
2018-06-07T12:31:16.144Z,23.93
2018-06-07T12:33:43.620Z,24.10
2018-06-07T12:36:10.943Z,28.87
2018-06-07T12:38:38.305Z,23.97
2018-06-07T12:41:05.784Z,24.70
2018-06-07T12:43:33.112Z,23.00
2018-06-07T12:46:00.494Z,23.97
2018-06-07T12:48:27.826Z,25.50
2018-06-07T12:50:55.279Z,24.60
2018-06-07T12:53:22.778Z,28.00
2018-06-07T12:55:50.113Z,25.00
2018-06-07T12:58:17.460Z,24.20
2018-06-07T13:00:44.800Z,22.00
2018-06-07T13:03:12.339Z,24.23
2018-06-07T13:05:39.721Z,23.37
2018-06-07T13:08:07.186Z,21.60
2018-06-07T13:10:34.494Z,22.60
2018-06-07T13:13:01.881Z,26.33
2018-06-07T13:15:29.243Z,22.70
2018-06-07T13:17:56.583Z,21.20
2018-06-07T13:20:23.939Z,21.70
2018-06-07T13:22:51.315Z,24.50
2018-06-07T13:25:18.655Z,21.50
2018-06-07T13:27:46.226Z,26.67
2018-06-07T13:30:13.623Z,24.63
2018-06-07T13:32:40.915Z,21.13
2018-06-07T13:35:08.380Z,18.33
2018-06-07T13:37:35.842Z,21.30
2018-06-07T13:40:03.223Z,19.07
2018-06-07T13:42:30.627Z,21.40
2018-06-07T13:44:58.095Z,22.67
2018-06-07T13:47:25.464Z,24.20
2018-06-07T13:49:52.807Z,24.17
2018-06-07T13:52:20.168Z,20.40
2018-06-07T13:54:47.728Z,20.30
2018-06-07T13:57:15.094Z,17.33
2018-06-07T13:59:42.511Z,20.67
2018-06-07T14:02:10.126Z,22.20
2018-06-07T14:04:37.435Z,19.40
2018-06-07T14:07:04.824Z,18.37
2018-06-07T14:09:32.449Z,17.87
2018-06-07T14:11:59.829Z,17.03
2018-06-07T14:14:27.184Z,18.80
2018-06-07T14:16:54.729Z,15.10
2018-06-07T14:19:22.148Z,14.87
2018-06-07T14:21:49.567Z,14.40
2018-06-07T14:24:17.128Z,12.10
2018-06-07T14:26:44.455Z,13.80
2018-06-07T14:29:11.883Z,13.97
2018-06-07T14:31:39.263Z,15.80
2018-06-07T14:34:06.608Z,18.30
2018-06-07T14:36:34.060Z,15.77
2018-06-07T14:39:01.428Z,15.30
2018-06-07T14:41:28.851Z,17.13
2018-06-07T14:43:56.247Z,19.80
2018-06-07T14:46:23.695Z,19.40
2018-06-07T14:48:51.085Z,15.97
2018-06-07T14:51:18.486Z,14.00
2018-06-07T14:53:45.872Z,16.73
2018-06-07T14:56:13.319Z,15.87
2018-06-07T14:58:40.712Z,16.67
2018-06-07T15:01:08.040Z,20.00
2018-06-07T15:03:35.363Z,19.77
2018-06-07T15:06:02.741Z,16.37
2018-06-07T15:08:30.076Z,19.73
2018-06-07T15:10:57.455Z,21.83
2018-06-07T15:13:24.787Z,17.13
2018-06-07T15:15:52.150Z,16.40
2018-06-07T15:18:19.467Z,16.53
2018-06-07T15:20:46.844Z,18.70
2018-06-07T15:23:14.205Z,16.03
2018-06-07T15:25:41.619Z,24.37
2018-06-07T15:28:09.109Z,22.10
2018-06-07T15:30:36.483Z,24.40
2018-06-07T15:33:03.854Z,24.10
2018-06-07T15:35:31.208Z,22.90
2018-06-07T15:37:58.746Z,25.67
2018-06-07T15:40:26.274Z,20.27
2018-06-07T15:42:53.691Z,22.80
2018-06-07T15:45:21.028Z,21.00
2018-06-07T15:47:48.464Z,21.60
2018-06-07T15:50:15.914Z,19.97
2018-06-07T15:52:43.287Z,20.83
2018-06-07T15:55:10.821Z,25.47
2018-06-07T15:57:38.326Z,23.10
2018-06-07T16:00:05.783Z,25.20
2018-06-07T16:02:33.119Z,24.67
2018-06-07T16:05:00.483Z,24.00
2018-06-07T16:07:27.986Z,23.03
2018-06-07T16:09:55.408Z,22.70
2018-06-07T16:12:22.864Z,21.87
2018-06-07T16:14:50.217Z,21.40
2018-06-07T16:17:17.556Z,19.60
2018-06-07T16:19:44.919Z,19.57
2018-06-07T16:22:12.500Z,16.93
2018-06-07T16:24:39.978Z,19.27
2018-06-07T16:27:07.393Z,17.90
2018-06-07T16:29:34.756Z,17.40
2018-06-07T16:32:02.120Z,16.17
2018-06-07T16:34:29.468Z,16.03
2018-06-07T16:36:56.899Z,13.73
2018-06-07T16:39:24.288Z,14.57
2018-06-07T16:41:51.870Z,14.77
2018-06-07T16:44:19.259Z,15.43
2018-06-07T16:46:46.627Z,16.40
2018-06-07T16:49:13.946Z,16.77
2018-06-07T16:51:41.545Z,9.10
2018-06-07T16:54:08.925Z,5.67
2018-06-07T16:56:36.415Z,6.50
2018-06-07T16:59:03.858Z,6.90
2018-06-07T17:01:31.190Z,7.30
2018-06-07T17:03:58.516Z,7.63
2018-06-07T17:06:25.915Z,8.07
2018-06-07T17:08:53.235Z,8.60
2018-06-07T17:11:20.616Z,9.07
2018-06-07T17:13:48.072Z,10.63
2018-06-07T17:16:15.566Z,9.80
2018-06-07T17:18:42.920Z,8.93
2018-06-07T17:21:10.407Z,10.27
2018-06-07T17:23:37.795Z,10.53
2018-06-07T17:26:05.303Z,10.77
2018-06-07T17:28:32.704Z,13.07
2018-06-07T17:31:00.051Z,13.90
2018-06-07T17:33:27.467Z,17.33
2018-06-07T17:35:55.024Z,17.60
2018-06-07T17:38:23.268Z,13.47
2018-06-07T17:40:50.647Z,15.00
2018-06-07T17:43:18.116Z,16.67
2018-06-07T17:45:45.495Z,17.77
2018-06-07T17:48:12.959Z,17.07
2018-06-07T17:50:40.310Z,15.07
2018-06-07T17:53:07.691Z,15.60
2018-06-07T17:55:35.081Z,20.97
2018-06-07T17:58:02.688Z,14.70
2018-06-07T18:00:30.025Z,20.40
2018-06-07T18:02:57.366Z,19.33
2018-06-07T18:05:24.738Z,17.90
2018-06-07T18:07:52.230Z,19.33
2018-06-07T18:10:19.621Z,18.40
2018-06-07T18:12:47.077Z,22.53
2018-06-07T18:15:14.519Z,17.10
2018-06-07T18:17:41.872Z,18.20
2018-06-07T18:20:09.256Z,17.00
2018-06-07T18:22:36.608Z,16.80
2018-06-07T18:25:04.023Z,19.77
2018-06-07T18:27:31.367Z,24.37
2018-06-07T18:29:58.706Z,15.17
2018-06-07T18:32:26.052Z,17.03
2018-06-07T18:34:53.384Z,17.60
2018-06-07T18:37:20.912Z,19.10
2018-06-07T18:39:48.287Z,16.47
2018-06-07T18:42:15.664Z,15.03
2018-06-07T18:44:43.084Z,15.30
2018-06-07T18:47:10.477Z,16.70
2018-06-07T18:49:37.884Z,17.77
2018-06-07T18:52:05.272Z,14.23
2018-06-07T18:54:32.604Z,15.97
2018-06-07T18:56:59.995Z,14.80
2018-06-07T18:59:27.351Z,15.77
2018-06-07T19:01:54.710Z,16.27
2018-06-07T19:04:22.288Z,18.20
2018-06-07T19:06:49.664Z,17.87
2018-06-07T19:09:22.284Z,19.50
2018-06-07T19:11:49.841Z,20.40
2018-06-07T19:14:22.476Z,20.90
2018-06-07T19:16:49.851Z,19.80
2018-06-07T19:19:22.616Z,19.60
2018-06-07T19:21:49.928Z,19.10
2018-06-07T19:24:17.305Z,19.90
2018-06-07T19:26:50.013Z,19.13
2018-06-07T19:29:17.380Z,20.60
2018-06-07T19:31:50.148Z,20.83
2018-06-07T19:34:22.884Z,17.90
2018-06-07T19:36:50.329Z,20.07
2018-06-07T19:40:20.576Z,18.93
2018-06-07T19:42:47.906Z,20.67
2018-06-07T19:45:15.268Z,21.33
2018-06-07T19:47:42.627Z,21.43
2018-06-07T19:50:09.991Z,20.80
2018-06-07T19:52:37.445Z,22.20
2018-06-07T19:55:05.262Z,23.90
2018-06-07T19:57:32.637Z,21.93
2018-06-07T19:59:59.994Z,22.67
2018-06-07T20:02:27.412Z,21.20
2018-06-07T20:04:54.849Z,22.40
2018-06-07T20:07:22.209Z,23.50
2018-06-07T20:09:49.636Z,20.53
2018-06-07T20:12:17.001Z,25.43
2018-06-07T20:14:44.323Z,23.20
2018-06-07T20:17:11.776Z,24.17
2018-06-07T20:19:39.133Z,24.40
2018-06-07T20:22:06.588Z,25.50
2018-06-07T20:24:33.918Z,23.40
2018-06-07T20:27:01.264Z,26.80
2018-06-07T20:29:28.685Z,27.10
2018-06-07T20:31:56.105Z,26.47
2018-06-07T20:34:23.465Z,27.00
2018-06-07T20:36:50.816Z,27.10
2018-06-07T20:39:18.436Z,26.33
2018-06-07T20:41:45.856Z,26.30
2018-06-07T20:44:13.229Z,28.63
2018-06-07T20:46:40.645Z,26.67
2018-06-07T20:49:08.111Z,24.20
2018-06-07T20:51:35.581Z,24.13
2018-06-07T20:54:02.968Z,26.33
2018-06-07T20:56:30.565Z,25.87
2018-06-07T20:58:58.165Z,25.57
2018-06-07T21:01:25.600Z,27.20
2018-06-07T21:03:52.964Z,28.20
2018-06-07T21:06:20.502Z,30.10
2018-06-07T21:08:47.931Z,32.00
2018-06-07T21:11:15.304Z,30.07
2018-06-07T21:13:42.718Z,31.40
2018-06-07T21:16:10.085Z,30.30
2018-06-07T21:18:37.460Z,32.20
2018-06-07T21:21:04.793Z,32.70
2018-06-07T21:23:32.270Z,34.10
2018-06-07T21:25:59.608Z,33.77
2018-06-07T21:28:27.365Z,33.77
2018-06-07T21:30:54.719Z,35.80
2018-06-07T21:33:22.088Z,33.60
2018-06-07T21:35:49.634Z,32.00
2018-06-07T21:38:17.039Z,32.67
2018-06-07T21:40:44.711Z,32.97
2018-06-07T21:43:12.169Z,35.23
2018-06-07T21:45:39.530Z,40.63
2018-06-07T21:48:06.915Z,41.17
2018-06-07T21:50:34.280Z,39.37
2018-06-07T21:53:01.670Z,41.13
2018-06-07T21:55:29.013Z,42.90
2018-06-07T21:57:56.357Z,41.40
2018-06-07T22:00:23.716Z,41.90
2018-06-07T22:02:51.139Z,44.40
2018-06-07T22:05:18.557Z,42.97
2018-06-07T22:07:45.976Z,39.67
2018-06-07T22:10:13.299Z,40.40
2018-06-07T22:12:40.669Z,41.27
2018-06-07T22:15:08.044Z,41.77
2018-06-07T22:17:35.589Z,39.90
2018-06-07T22:20:02.922Z,40.23
2018-06-07T22:22:30.636Z,40.13
2018-06-07T22:24:58.111Z,40.50
2018-06-07T22:27:25.716Z,41.50
2018-06-07T22:29:53.081Z,41.30
2018-06-07T22:32:20.415Z,39.67
2018-06-07T22:34:47.744Z,39.20
2018-06-07T22:37:15.188Z,39.67
2018-06-07T22:39:42.526Z,40.33
2018-06-07T22:42:09.918Z,42.53
2018-06-07T22:44:37.307Z,44.20
2018-06-07T22:47:04.657Z,42.17
2018-06-07T22:49:31.991Z,44.00
2018-06-07T22:51:59.368Z,43.37
2018-06-07T22:54:26.699Z,44.90
2018-06-07T22:56:54.024Z,45.70
2018-06-07T22:59:21.503Z,43.83
2018-06-07T23:01:48.855Z,44.47
2018-06-07T23:04:16.322Z,45.83
2018-06-07T23:06:43.700Z,47.80
2018-06-07T23:09:11.173Z,48.67
2018-06-07T23:11:38.504Z,50.03
2018-06-07T23:14:05.988Z,53.70
2018-06-07T23:16:33.331Z,55.40
2018-06-07T23:19:00.722Z,54.97
2018-06-07T23:21:28.200Z,51.13
2018-06-07T23:23:55.548Z,54.27
2018-06-07T23:26:22.871Z,55.67
2018-06-07T23:28:50.201Z,57.00
2018-06-07T23:31:17.535Z,55.00
2018-06-07T23:33:45.013Z,54.40
2018-06-07T23:36:12.435Z,54.60
2018-06-07T23:38:39.798Z,54.77
2018-06-07T23:41:07.146Z,58.73
2018-06-07T23:43:34.500Z,57.80
2018-06-07T23:46:01.868Z,58.17
2018-06-07T23:48:29.337Z,56.87
2018-06-07T23:50:56.647Z,56.00
2018-06-07T23:53:24.030Z,53.67
2018-06-07T23:55:51.462Z,49.10
2018-06-07T23:58:18.796Z,48.23
